Time;durP1;ratioP1;P1;durP2;ratioP2;P2;SDS_P1;SDS_P2;PMS_P1;PMS_P2;Temp;Humidity;BMP_temperature;BMP_pressure;BME280_temperature;BME280_humidity;BME280_pressure;Samples;Min_cycle;Max_cycle;Signal;HPM_P1;HPM_P2
2022/04/26 03:36:10;;;;;;;16.07;3.23;;;;;;;16.24;62.04;96702.41;4870295;29;20222;-83
2022/04/26 03:38:43;;;;;;;12.90;3.80;;;;;;;15.97;62.52;96694.81;4872788;29;20207;-86
2022/04/26 03:41:11;;;;;;;6.10;2.67;;;;;;;15.95;62.25;96717.59;4871091;29;20607;-92
2022/04/26 03:43:41;;;;;;;7.60;3.33;;;;;;;15.68;62.76;96697.88;4872907;29;20201;-88
2022/04/26 03:46:09;;;;;;;8.87;3.03;;;;;;;15.72;63.62;96710.59;4866997;29;20310;-94
2022/04/26 03:48:38;;;;;;;13.23;5.40;;;;;;;15.82;63.58;96727.28;4860660;29;20236;-85
2022/04/26 03:51:06;;;;;;;9.17;4.00;;;;;;;15.66;63.82;96679.69;4842453;29;20200;-85
2022/04/26 03:53:34;;;;;;;12.73;4.50;;;;;;;15.93;63.15;96724.72;4860347;29;20236;-86
2022/04/26 03:56:04;;;;;;;9.30;4.40;;;;;;;16.10;64.02;96741.78;4859043;29;20200;-85
2022/04/26 03:58:36;;;;;;;13.87;5.10;;;;;;;16.24;63.04;96741.59;4855434;29;20681;-86
2022/04/26 04:01:07;;;;;;;14.80;6.73;;;;;;;16.75;62.06;96736.97;4855566;29;20586;-85
2022/04/26 04:03:38;;;;;;;13.97;5.30;;;;;;;16.95;60.71;96726.69;4856634;29;20716;-88
2022/04/26 04:06:07;;;;;;;9.10;4.00;;;;;;;16.64;58.93;96645.41;4855597;29;20196;-84
2022/04/26 04:08:34;;;;;;;5.43;3.43;;;;;;;16.93;58.69;96732.97;4854380;29;20573;-86
2022/04/26 04:11:01;;;;;;;8.03;2.60;;;;;;;16.76;59.46;96738.63;4858054;29;20651;-90
2022/04/26 04:13:28;;;;;;;10.50;3.27;;;;;;;16.99;59.42;96743.81;4857921;29;20241;-90
2022/04/26 04:15:56;;;;;;;8.43;3.20;;;;;;;17.27;58.15;96755.59;4863525;29;20210;-84
2022/04/26 04:21:11;;;;;;;13.00;4.67;;;;;;;16.89;58.18;96752.47;4857577;29;20269;-84
2022/04/26 04:23:42;;;;;;;9.53;3.57;;;;;;;16.74;58.64;96756.22;4859111;29;20218;-84
2022/04/26 04:26:13;;;;;;;9.93;4.83;;;;;;;16.78;59.02;96742.78;4861495;29;20229;-86
2022/04/26 04:28:42;;;;;;;7.63;3.50;;;;;;;17.21;57.64;96765.72;4887962;29;20265;-84
2022/04/26 04:31:12;;;;;;;10.60;3.83;;;;;;;16.84;57.13;96703.09;4899892;29;20199;-84
2022/04/26 04:33:40;;;;;;;6.43;2.73;;;;;;;16.96;57.50;96737.97;4902345;29;20216;-83
2022/04/26 04:36:07;;;;;;;9.03;3.67;;;;;;;16.83;58.65;96768.63;4901557;29;20274;-84
2022/04/26 04:38:36;;;;;;;15.90;5.53;;;;;;;16.91;58.68;96780.19;4885908;29;20194;-85
2022/04/26 04:41:08;;;;;;;9.13;3.20;;;;;;;16.71;59.12;96740.78;4877412;29;20313;-83
2022/04/26 04:43:36;;;;;;;4.70;2.23;;;;;;;16.89;59.36;96778.63;4874897;29;20189;-84
2022/04/26 04:46:03;;;;;;;9.53;2.90;;;;;;;16.76;59.70;96778.69;4890373;29;20201;-84
2022/04/26 04:48:30;;;;;;;9.03;3.40;;;;;;;16.56;60.08;96775.88;4873385;29;20200;-85
2022/04/26 04:50:58;;;;;;;7.83;3.43;;;;;;;16.28;59.99;96733.44;4859502;29;20296;-86
2022/04/26 04:53:26;;;;;;;9.13;3.00;;;;;;;16.30;60.41;96739.38;4874128;29;20318;-84
2022/04/26 04:55:53;;;;;;;6.20;2.43;;;;;;;16.35;60.29;96774.81;4889616;29;20193;-84
2022/04/26 04:58:23;;;;;;;7.53;2.70;;;;;;;16.50;59.56;96758.88;4876816;29;20206;-84
2022/04/26 05:00:52;;;;;;;12.27;7.83;;;;;;;16.81;59.04;96771.34;4873441;29;20207;-84
2022/04/26 05:03:20;;;;;;;8.60;3.00;;;;;;;17.21;57.43;96782.25;4876474;29;20230;-83
2022/04/26 05:05:47;;;;;;;10.70;5.00;;;;;;;17.60;56.31;96773.97;4874142;29;20196;-84
2022/04/26 05:08:14;;;;;;;7.47;3.10;;;;;;;17.99;55.48;96771.81;4876490;29;20264;-83
2022/04/26 05:10:41;;;;;;;15.27;3.77;;;;;;;18.14;55.18;96757.47;4874991;29;20251;-84
2022/04/26 05:13:17;;;;;;;5.47;2.90;;;;;;;18.31;54.74;96770.06;4873639;29;20329;-84
2022/04/26 05:15:44;;;;;;;8.60;3.73;;;;;;;18.19;55.05;96792.00;4875633;29;20206;-84
2022/04/26 05:18:13;;;;;;;4.67;3.27;;;;;;;18.13;55.09;96789.88;4874158;29;20201;-84
2022/04/26 05:20:42;;;;;;;4.50;2.87;;;;;;;18.00;54.60;96765.59;4876142;29;20208;-83
2022/04/26 05:26:00;;;;;;;7.07;2.73;;;;;;;18.47;54.57;96773.97;4875264;29;20205;-85
2022/04/26 05:28:29;;;;;;;6.00;2.50;;;;;;;18.77;54.16;96798.66;4875642;29;20194;-84
2022/04/26 05:30:56;;;;;;;4.03;2.50;;;;;;;18.76;54.16;96784.69;4875381;29;20203;-84
2022/04/26 05:33:27;;;;;;;8.90;3.13;;;;;;;19.08;54.39;96803.84;4876712;29;20317;-88
2022/04/26 05:35:58;;;;;;;8.27;3.00;;;;;;;19.04;54.28;96791.13;4874220;29;20281;-89
2022/04/26 05:38:28;;;;;;;8.37;3.60;;;;;;;18.88;55.26;96802.03;4863409;29;20199;-92
2022/04/26 05:40:57;;;;;;;11.73;3.17;;;;;;;18.68;55.97;96769.59;4880585;29;20364;-88
2022/04/26 05:43:24;;;;;;;7.70;3.10;;;;;;;19.18;55.70;96796.88;4878196;29;20735;-86
2022/04/26 05:45:51;;;;;;;7.53;3.37;;;;;;;19.29;55.11;96804.69;4878219;29;20656;-92
2022/04/26 05:48:18;;;;;;;8.37;3.07;;;;;;;19.57;54.29;96799.75;4876421;29;20552;-84
2022/04/26 05:50:48;;;;;;;14.50;4.00;;;;;;;19.87;53.11;96771.66;4874811;29;20195;-87
2022/04/26 05:53:18;;;;;;;12.57;4.40;;;;;;;20.17;52.91;96821.56;4874378;29;20258;-90
2022/04/26 05:55:47;;;;;;;7.23;3.90;;;;;;;20.06;52.73;96820.84;4879291;29;20772;-85
2022/04/26 05:58:16;;;;;;;9.93;3.90;;;;;;;20.05;53.43;96812.09;4874385;29;20290;-84
2022/04/26 06:00:46;;;;;;;10.20;3.90;;;;;;;20.03;53.27;96810.59;4877412;29;20215;-84
2022/04/26 06:03:15;;;;;;;9.33;3.57;;;;;;;20.04;53.33;96807.00;4875166;29;20236;-86
2022/04/26 06:05:44;;;;;;;9.07;3.47;;;;;;;20.26;52.02;96812.06;4860651;29;20225;-86
2022/04/26 06:08:25;;;;;;;9.33;4.27;;;;;;;20.50;51.76;96819.59;4860813;29;20218;-86
2022/04/26 06:10:52;;;;;;;14.07;3.90;;;;;;;20.56;51.08;96780.44;4872318;29;20291;-84
2022/04/26 06:13:22;;;;;;;13.77;4.03;;;;;;;21.04;50.30;96815.50;4875217;29;20227;-90
2022/04/26 06:15:50;;;;;;;9.67;2.90;;;;;;;21.22;50.16;96799.81;4873913;29;20273;-90
2022/04/26 06:18:20;;;;;;;11.90;3.33;;;;;;;21.41;49.83;96812.94;4859761;29;20889;-85
2022/04/26 06:20:49;;;;;;;7.63;3.40;;;;;;;20.95;50.53;96763.66;4861637;29;20200;-87
2022/04/26 06:23:17;;;;;;;12.83;4.10;;;;;;;21.31;50.19;96795.50;4883921;29;20210;-87
2022/04/26 06:25:45;;;;;;;11.83;3.63;;;;;;;21.51;50.33;96792.69;4879174;29;20320;-85
2022/04/26 06:28:13;;;;;;;20.43;4.37;;;;;;;21.80;49.89;96808.41;4872137;29;20188;-85
2022/04/26 06:30:44;;;;;;;11.67;3.73;;;;;;;21.89;48.83;96786.47;4874732;29;20289;-86
2022/04/26 06:33:12;;;;;;;9.63;4.13;;;;;;;22.10;48.11;96796.75;4873380;29;20282;-85
2022/04/26 06:35:46;;;;;;;15.83;3.77;;;;;;;22.17;46.42;96788.13;4859277;29;20206;-88
2022/04/26 06:38:16;;;;;;;5.60;2.40;;;;;;;22.33;44.25;96795.41;4873253;29;20868;-88
2022/04/26 06:40:45;;;;;;;5.93;2.97;;;;;;;22.54;43.97;96803.88;4856953;29;20209;-88
2022/04/26 06:43:16;;;;;;;6.27;2.30;;;;;;;22.55;43.63;96801.06;4875704;29;20199;-88
2022/04/26 06:45:46;;;;;;;5.43;2.80;;;;;;;22.47;42.80;96765.84;4871237;29;20572;-87
2022/04/26 06:48:17;;;;;;;8.83;3.73;;;;;;;22.83;40.71;96778.13;4875473;29;20203;-84
2022/04/26 06:50:46;;;;;;;7.10;2.33;;;;;;;22.99;38.37;96782.69;4873305;29;20259;-87
2022/04/26 06:53:14;;;;;;;4.30;2.77;;;;;;;23.32;37.89;96809.25;4857912;29;20680;-88
2022/04/26 06:55:44;;;;;;;5.90;2.50;;;;;;;23.36;37.37;96807.13;4873655;29;20304;-85
2022/04/26 06:58:22;;;;;;;11.50;2.30;;;;;;;23.31;36.48;96806.72;4872694;29;20211;-85
2022/04/26 07:00:49;;;;;;;5.10;1.90;;;;;;;23.12;36.70;96777.88;4876205;29;20514;-87
2022/04/26 07:03:19;;;;;;;5.37;2.00;;;;;;;23.51;35.18;96805.59;4874367;29;20783;-85
2022/04/26 07:05:51;;;;;;;7.77;4.07;;;;;;;23.33;35.51;96794.22;4878671;29;20287;-87
2022/04/26 07:08:24;;;;;;;6.50;1.70;;;;;;;23.43;34.54;96802.91;4873709;29;20266;-85
2022/04/26 07:10:52;;;;;;;2.87;2.13;;;;;;;23.58;35.40;96793.41;4875120;29;20200;-85
2022/04/26 07:13:35;;;;;;;5.93;1.70;;;;;;;23.24;35.83;96788.03;4875558;29;20221;-86
2022/04/26 07:16:04;;;;;;;4.43;1.90;;;;;;;22.64;37.03;96800.22;4871984;29;20204;-89
2022/04/26 07:18:37;;;;;;;5.00;2.10;;;;;;;22.47;37.88;96802.81;4858730;29;20293;-86
2022/04/26 07:21:07;;;;;;;7.27;2.90;;;;;;;22.64;37.84;96800.22;4857150;29;20680;-84
2022/04/26 07:23:43;;;;;;;7.30;1.90;;;;;;;22.88;37.00;96790.84;4878814;29;20200;-86
2022/04/26 07:26:24;;;;;;;6.60;3.50;;;;;;;22.85;36.94;96792.00;4861943;29;20199;-87
2022/04/26 07:28:53;;;;;;;3.50;2.00;;;;;;;23.35;36.07;96802.81;4873816;29;20211;-86
2022/04/26 07:31:29;;;;;;;7.33;1.87;;;;;;;23.20;35.32;96759.44;4872896;29;20655;-87
2022/04/26 07:34:21;;;;;;;8.03;2.37;;;;;;;23.67;36.25;96818.09;4872178;29;20232;-87
2022/04/26 07:36:50;;;;;;;4.00;2.73;;;;;;;23.27;36.73;96797.44;4860290;29;20333;-90
2022/04/26 07:39:21;;;;;;;8.80;3.23;;;;;;;23.31;36.65;96822.56;4874975;29;20227;-90
2022/04/26 07:41:56;;;;;;;4.10;2.07;;;;;;;22.71;37.30;96784.59;4872369;29;20214;-88
2022/04/26 07:44:25;;;;;;;4.80;2.03;;;;;;;23.01;36.13;96815.06;4875408;29;20263;-90
2022/04/26 07:46:55;;;;;;;7.77;2.10;;;;;;;23.33;35.65;96815.34;4874629;29;20196;-87
2022/04/26 07:49:26;;;;;;;5.03;1.93;;;;;;;23.49;35.07;96799.63;4859784;29;20224;-85
2022/04/26 07:51:55;;;;;;;5.07;2.77;;;;;;;23.18;35.63;96809.78;4871114;29;20223;-86
2022/04/26 07:54:23;;;;;;;3.97;1.60;;;;;;;23.51;34.35;96820.63;4874227;29;20238;-84
2022/04/26 07:56:51;;;;;;;3.50;1.37;;;;;;;23.53;35.44;96811.56;4872967;29;20208;-86
2022/04/26 07:59:25;;;;;;;3.73;1.87;;;;;;;23.69;34.13;96809.00;4874181;29;20200;-87
2022/04/26 08:01:57;;;;;;;6.53;2.00;;;;;;;23.97;34.36;96818.41;4875740;29;20263;-87
2022/04/26 08:04:28;;;;;;;4.13;2.20;;;;;;;23.95;34.14;96804.50;4874827;29;20208;-85
2022/04/26 08:06:55;;;;;;;6.17;2.03;;;;;;;23.94;34.58;96817.91;4877562;29;20668;-85
2022/04/26 08:09:25;;;;;;;5.10;2.73;;;;;;;23.32;35.35;96800.50;4875483;29;20212;-89
2022/04/26 08:11:57;;;;;;;4.30;2.17;;;;;;;23.55;35.49;96814.03;4877953;29;20208;-89
2022/04/26 08:14:25;;;;;;;2.83;1.70;;;;;;;23.82;35.74;96782.94;4861279;29;20716;-90
2022/04/26 08:16:55;;;;;;;6.97;2.30;;;;;;;24.09;34.19;96784.63;4878212;29;20201;-85
2022/04/26 08:19:26;;;;;;;6.40;1.90;;;;;;;24.36;33.22;96818.75;4877917;29;20254;-85
2022/04/26 08:21:54;;;;;;;3.60;1.80;;;;;;;23.81;33.94;96776.00;4874216;29;20633;-85
2022/04/26 08:27:33;;;;;;;4.03;1.57;;;;;;;23.84;33.88;96783.66;4899596;29;20193;-85
2022/04/26 08:30:08;;;;;;;9.10;2.23;;;;;;;24.05;34.27;96805.25;4901969;29;20209;-87
2022/04/26 08:32:42;;;;;;;4.70;2.10;;;;;;;24.30;32.83;96830.00;4879279;29;20229;-85
2022/04/26 08:35:18;;;;;;;8.40;2.10;;;;;;;24.58;31.71;96827.94;4857821;29;20208;-89
2022/04/26 08:37:53;;;;;;;3.77;1.30;;;;;;;24.00;34.85;96841.91;4878280;29;20305;-86
2022/04/26 08:40:37;;;;;;;2.53;2.17;;;;;;;23.71;34.71;96820.25;4877036;29;20206;-85
2022/04/26 08:43:15;;;;;;;3.53;1.57;;;;;;;23.65;35.68;96805.03;4861192;29;20212;-87
2022/04/26 08:45:49;;;;;;;6.73;4.40;;;;;;;23.79;35.44;96836.19;4875427;29;20229;-85
2022/04/26 08:51:07;;;;;;;6.03;1.73;;;;;;;22.90;36.38;96804.72;4876379;29;20226;-86
2022/04/26 08:53:35;;;;;;;2.10;1.20;;;;;;;22.53;37.35;96828.59;4875063;29;20230;-85
2022/04/26 08:56:06;;;;;;;4.50;1.40;;;;;;;22.79;37.30;96834.03;4875565;29;20213;-85
2022/04/26 08:58:39;;;;;;;2.17;1.37;;;;;;;22.79;37.43;96819.03;4858777;29;20232;-85
2022/04/26 09:01:23;;;;;;;4.80;2.07;;;;;;;22.52;36.91;96801.38;4872668;29;20230;-87
2022/04/26 09:03:56;;;;;;;2.57;1.07;;;;;;;22.78;37.60;96838.47;4862807;29;383806;-86
2022/04/26 09:07:00;;;;;;;8.00;1.60;;;;;;;22.78;37.97;96816.50;4875449;29;20208;-88
2022/04/26 09:09:40;;;;;;;5.40;1.80;;;;;;;23.15;37.57;96817.16;4879484;29;20275;-87
2022/04/26 09:12:13;;;;;;;3.33;2.00;;;;;;;23.58;36.44;96824.28;4863042;29;20295;-90
2022/04/26 09:17:49;;;;;;;4.77;2.30;;;;;;;23.80;37.96;96823.78;4866034;29;20276;-85
2022/04/26 09:20:35;;;;;;;8.87;3.60;;;;;;;23.56;36.73;96805.94;4877240;29;20673;-89
2022/04/26 09:23:17;;;;;;;2.23;1.47;;;;;;;23.84;36.81;96831.25;4876977;29;20224;-90
2022/04/26 09:25:52;;;;;;;3.63;1.93;;;;;;;23.36;35.98;96828.28;4879712;29;20237;-85
2022/04/26 09:28:24;;;;;;;5.27;2.37;;;;;;;23.51;35.80;96834.69;4875014;29;20213;-88
2022/04/26 09:30:54;;;;;;;6.17;1.70;;;;;;;22.95;36.01;96802.47;4879543;29;20212;-86
2022/04/26 09:33:47;;;;;;;4.73;2.23;;;;;;;23.18;35.43;96823.00;4875861;29;20682;-88
2022/04/26 09:36:20;;;;;;;5.73;2.83;;;;;;;23.14;36.77;96784.63;4881621;29;20284;-86
2022/04/26 09:38:50;;;;;;;5.37;1.63;;;;;;;23.16;37.18;96805.63;4882499;29;20205;-90
2022/04/26 09:41:22;;;;;;;4.73;1.70;;;;;;;23.44;36.89;96812.47;4877447;29;20322;-85
2022/04/26 09:44:03;;;;;;;1.93;1.23;;;;;;;23.74;35.74;96806.72;4880904;29;20227;-90
2022/04/26 09:46:54;;;;;;;3.53;1.50;;;;;;;23.53;36.69;96808.91;4878792;29;20233;-90
2022/04/26 09:49:26;;;;;;;3.00;1.90;;;;;;;23.46;36.75;96813.16;4864020;29;20577;-90
2022/04/26 09:52:01;;;;;;;8.93;4.93;;;;;;;23.03;37.24;96810.47;4860729;29;20208;-86
2022/04/26 09:54:29;;;;;;;5.40;1.90;;;;;;;23.21;37.41;96806.00;4873027;29;20231;-86
2022/04/26 09:57:02;;;;;;;5.03;2.27;;;;;;;23.08;37.16;96798.44;4875363;29;20657;-85
2022/04/26 09:59:53;;;;;;;4.63;1.63;;;;;;;;;;4882621;29;20202;-84
2022/04/26 10:02:31;;;;;;;5.63;2.50;;;;;;;23.62;36.51;96812.44;4876902;29;20246;-84
2022/04/26 10:05:06;;;;;;;6.50;2.40;;;;;;;23.59;36.58;96803.00;4861306;29;20203;-84
2022/04/26 10:07:43;;;;;;;4.33;1.83;;;;;;;23.80;35.24;96794.69;4873049;29;20200;-88
2022/04/26 10:10:14;;;;;;;6.77;2.07;;;;;;;23.93;34.84;96790.63;4875918;29;20197;-85
2022/04/26 10:13:31;;;;;;;7.00;1.80;;;;;;;24.12;35.02;96790.41;4872746;29;20208;-86
2022/04/26 10:15:43;;;;;;;6.33;2.13;;;;;;;24.35;34.43;96795.94;4873561;29;20708;-89
2022/04/26 10:18:39;;;;;;;9.03;2.33;;;;;;;24.29;34.35;96793.09;4873764;29;20614;-87
2022/04/26 10:21:07;;;;;;;5.20;1.90;;;;;;;23.92;34.83;96778.41;4872927;29;20194;-87
2022/04/26 10:24:12;;;;;;;9.30;1.80;;;;;;;23.75;35.40;96804.91;4874965;29;20291;-85
2022/04/26 10:26:45;;;;;;;3.03;1.73;;;;;;;23.60;34.53;96764.16;4788517;29;20293;-84
2022/04/26 10:29:17;;;;;;;5.03;1.83;;;;;;;24.01;35.06;96793.28;4865513;29;20297;-85
2022/04/26 10:32:03;;;;;;;4.23;1.80;;;;;;;23.32;35.04;96795.22;4875200;29;20197;-86
2022/04/26 10:34:34;;;;;;;7.57;1.90;;;;;;;24.01;35.03;96800.41;4872194;29;20322;-84
2022/04/26 10:37:32;;;;;;;10.90;2.37;;;;;;;24.35;34.39;96806.53;4875201;29;20198;-85
2022/04/26 10:40:03;;;;;;;6.10;2.40;;;;;;;24.47;34.15;96796.47;4874050;29;20649;-84
2022/04/26 10:42:35;;;;;;;10.73;3.50;;;;;;;24.57;33.59;96795.34;4873019;29;20945;-85
2022/04/26 10:45:30;;;;;;;7.90;2.00;;;;;;;24.96;32.45;96795.56;4874163;29;20806;-84
2022/04/26 10:48:25;;;;;;;4.80;1.80;;;;;;;24.28;33.78;96704.13;4872356;29;20239;-84
2022/04/26 10:50:54;;;;;;;7.63;1.93;;;;;;;24.55;33.44;96752.31;4873182;29;20235;-84
2022/04/26 10:53:45;;;;;;;5.33;1.83;;;;;;;24.01;34.75;96793.28;4858051;29;20719;-85
2022/04/26 10:56:15;;;;;;;7.27;1.87;;;;;;;24.73;33.69;96789.25;4857193;29;20687;-85
2022/04/26 10:58:57;;;;;;;5.30;1.70;;;;;;;25.21;33.45;96785.81;4874774;29;20289;-84
2022/04/26 11:01:30;;;;;;;7.00;1.90;;;;;;;25.13;34.08;96789.31;4872946;29;20687;-84
2022/04/26 11:04:06;;;;;;;7.00;2.53;;;;;;;25.24;33.40;96783.69;4858994;29;20245;-84
2022/04/26 11:06:45;;;;;;;4.80;1.93;;;;;;;25.08;33.35;96773.06;4880338;29;20574;-90
2022/04/26 11:09:18;;;;;;;4.97;2.77;;;;;;;25.44;32.72;96769.09;4881179;29;20210;-91
2022/04/26 11:11:55;;;;;;;6.83;1.80;;;;;;;25.41;32.30;96745.56;4886527;29;20230;-87
2022/04/26 11:15:10;;;;;;;5.50;2.10;;;;;;;24.94;33.17;96771.06;4888172;29;20249;-86
2022/04/26 11:18:00;;;;;;;6.80;2.30;;;;;;;25.52;32.09;96755.81;4871663;29;20238;-86
2022/04/26 11:20:34;;;;;;;5.73;1.90;;;;;;;25.81;31.86;96748.09;4871790;29;20215;-87
2022/04/26 11:27:59;;;;;;;4.30;1.80;;;;;;;25.75;32.52;96758.56;4886672;29;20207;-86
2022/04/26 11:29:27;;;;;;;7.27;1.70;;;;;;;25.52;32.56;96755.81;4883663;29;20207;-87
2022/04/26 11:31:56;;;;;;;5.73;2.00;;;;;;;24.91;33.98;96740.47;4862744;29;20581;-94
2022/04/26 11:34:48;;;;;;;6.70;1.90;;;;;;;25.09;33.79;96748.22;4877782;29;20298;-89
2022/04/26 11:37:20;;;;;;;4.27;2.23;;;;;;;25.00;33.68;96750.03;4881149;29;20196;-86
2022/04/26 11:39:50;;;;;;;6.07;1.90;;;;;;;24.62;34.13;96749.84;4883508;29;20290;-88
2022/04/26 11:42:20;;;;;;;5.77;2.10;;;;;;;24.52;33.71;96720.03;4883950;29;20236;-85
2022/04/26 11:45:05;;;;;;;5.60;2.03;;;;;;;24.05;34.25;96749.69;4872434;29;20259;-86
2022/04/26 11:47:52;;;;;;;6.93;2.57;;;;;;;24.43;34.54;96750.13;4890363;29;20278;-88
2022/04/26 11:50:30;;;;;;;9.53;2.00;;;;;;;24.16;34.92;96743.28;4885538;29;20194;-86
2022/04/26 11:53:01;;;;;;;4.80;2.60;;;;;;;23.79;35.58;96748.91;4860870;29;20217;-85
2022/04/26 11:55:40;;;;;;;5.30;2.27;;;;;;;23.75;36.13;96744.06;4876637;29;20261;-84
2022/04/26 11:58:10;;;;;;;6.20;2.40;;;;;;;23.55;35.78;96738.22;4873129;29;20285;-84
2022/04/26 12:01:10;;;;;;;6.50;2.00;;;;;;;23.23;37.20;96740.59;4875218;29;20199;-86
2022/04/26 12:04:05;;;;;;;2.43;1.73;;;;;;;22.90;38.55;96746.63;4875715;29;20247;-87
2022/04/26 12:06:50;;;;;;;8.60;1.70;;;;;;;22.61;39.69;96731.03;4845212;29;20207;-85
2022/04/26 12:09:23;;;;;;;3.13;1.33;;;;;;;22.08;40.96;96746.81;4876301;29;20219;-85
2022/04/26 12:12:02;;;;;;;8.53;1.63;;;;;;;21.94;41.64;96770.19;4873462;29;20285;-89
2022/04/26 12:14:44;;;;;;;4.90;1.70;;;;;;;21.63;41.99;96751.16;4875116;29;20230;-87
2022/04/26 12:17:27;;;;;;;3.17;1.60;;;;;;;21.32;41.89;96718.13;4876291;29;20218;-85
2022/04/26 12:20:09;;;;;;;3.73;1.47;;;;;;;21.23;42.60;96732.16;4873506;29;20208;-86
2022/04/26 12:22:37;;;;;;;5.50;1.50;;;;;;;21.28;42.58;96733.41;4874350;29;20214;-85
2022/04/26 12:25:16;;;;;;;8.33;1.97;;;;;;;21.52;43.18;96761.88;4874372;29;20204;-89
2022/04/26 12:28:01;;;;;;;3.67;1.40;;;;;;;21.49;43.37;96778.00;4874331;29;20639;-88
2022/04/26 12:30:32;;;;;;;5.03;1.90;;;;;;;21.44;45.48;96772.31;4878171;29;20615;-86
2022/04/26 12:33:30;;;;;;;2.83;1.53;;;;;;;21.16;46.64;96771.41;4878875;29;20214;-88
2022/04/26 12:36:05;;;;;;;2.70;1.47;;;;;;;20.92;43.83;96803.41;4859812;29;20231;-87
2022/04/26 12:38:51;;;;;;;11.97;3.30;;;;;;;20.78;47.16;96803.84;4843191;29;20278;-85
2022/04/26 12:41:21;;;;;;;8.23;2.60;;;;;;;20.34;51.34;96814.84;4870808;29;20230;-91
2022/04/26 12:44:02;;;;;;;9.97;3.00;;;;;;;19.28;61.08;96775.94;4875777;29;20257;-86
2022/04/26 12:46:44;;;;;;;8.53;3.27;;;;;;;17.99;66.29;96804.06;4875549;29;20294;-88
2022/04/26 12:52:00;;;;;;;12.90;4.70;;;;;;;17.35;71.97;96857.94;4877463;29;20206;-87
2022/04/26 12:54:29;;;;;;;9.10;3.97;;;;;;;17.07;72.49;96825.16;4875333;29;20679;-89
2022/04/26 12:57:01;;;;;;;8.73;4.23;;;;;;;17.17;72.00;96866.31;4863596;29;20209;-88
2022/04/26 12:59:35;;;;;;;12.80;4.57;;;;;;;16.96;72.98;96889.72;4883951;29;20253;-87
2022/04/26 13:02:04;;;;;;;14.03;4.77;;;;;;;16.57;75.50;96879.53;4879120;29;20308;-86
2022/04/26 13:04:31;;;;;;;12.17;4.60;;;;;;;16.48;75.47;96911.53;4877014;29;20193;-88
2022/04/26 13:07:02;;;;;;;6.83;2.90;;;;;;;16.22;71.01;96877.59;4878109;29;20206;-87
2022/04/26 13:12:37;;;;;;;6.73;3.23;;;;;;;15.28;76.29;96806.78;4864879;29;20195;-86
2022/04/26 13:15:08;;;;;;;7.97;2.70;;;;;;;15.24;74.76;96813.97;4878867;29;20228;-87
2022/04/26 13:17:37;;;;;;;4.20;2.10;;;;;;;15.03;78.47;96851.94;4876592;29;20257;-84
2022/04/26 13:20:08;;;;;;;8.77;2.30;;;;;;;15.16;75.71;96816.28;4878270;29;20223;-87
2022/04/26 13:22:37;;;;;;;6.07;4.47;;;;;;;15.50;75.25;96835.72;4877979;29;20209;-83
2022/04/26 13:25:07;;;;;;;5.67;2.60;;;;;;;15.30;77.09;96842.25;4843275;29;20210;-86
2022/04/26 13:27:37;;;;;;;2.70;2.03;;;;;;;15.60;73.65;96828.09;4877468;29;20295;-85
2022/04/26 13:30:16;;;;;;;3.07;1.90;;;;;;;15.85;74.58;96828.03;4858491;29;20202;-87
2022/04/26 13:32:44;;;;;;;3.37;2.43;;;;;;;15.89;75.79;96825.13;4883290;29;20200;-83
2022/04/26 13:35:12;;;;;;;5.87;2.67;;;;;;;15.93;73.39;96821.34;4880089;29;20677;-91
2022/04/26 13:37:43;;;;;;;3.10;2.07;;;;;;;16.14;73.06;96805.94;4875692;29;20196;-90
2022/04/26 13:40:12;;;;;;;5.20;2.53;;;;;;;16.50;72.67;96789.41;4878631;29;20318;-88
2022/04/26 13:42:42;;;;;;;5.63;1.90;;;;;;;16.35;70.04;96773.03;4875495;29;20208;-91
2022/04/26 13:45:11;;;;;;;4.53;2.50;;;;;;;16.64;70.83;96774.38;4878491;29;20208;-88
2022/04/26 13:47:40;;;;;;;2.63;1.80;;;;;;;17.04;64.10;96795.78;4876816;29;20655;-87
2022/04/26 13:50:13;;;;;;;3.37;1.47;;;;;;;17.14;63.23;96780.22;4876987;29;20196;-90
2022/04/26 13:52:44;;;;;;;6.10;1.53;;;;;;;17.47;60.62;96780.25;4876166;29;20200;-90
2022/04/26 13:55:15;;;;;;;2.97;1.60;;;;;;;17.59;59.30;96772.31;4872482;29;20238;-82
2022/04/26 13:57:46;;;;;;;4.33;1.70;;;;;;;17.55;59.73;96747.31;4874694;29;20796;-85
2022/04/26 14:00:17;;;;;;;2.60;1.60;;;;;;;17.65;59.97;96768.38;4876325;29;20200;-83
2022/04/26 14:02:46;;;;;;;2.80;1.50;;;;;;;17.41;59.73;96710.88;4882157;29;20236;-85
2022/04/26 14:05:17;;;;;;;2.73;1.43;;;;;;;17.93;61.42;96773.09;4857435;29;20206;-86
2022/04/26 14:07:46;;;;;;;4.10;1.70;;;;;;;18.05;59.99;96750.34;4874291;29;20199;-86
2022/04/26 14:10:15;;;;;;;2.93;1.80;;;;;;;18.13;58.72;96793.34;4874143;29;20197;-84
2022/04/26 14:12:43;;;;;;;1.53;1.30;;;;;;;18.11;60.53;96747.25;4872707;29;20212;-83
2022/04/26 14:23:37;;;;;;;3.00;1.40;;;;;;;18.26;56.21;96731.09;4873655;29;20194;-85
2022/04/26 14:26:06;;;;;;;2.00;1.30;;;;;;;18.41;56.80;96742.13;4871867;29;20197;-86
2022/04/26 14:29:14;;;;;;;1.93;1.40;;;;;;;18.78;54.68;96780.16;4874124;29;20309;-83
2022/04/26 14:32:37;;;;;;;4.70;2.30;;;;;;;19.38;56.47;96788.19;4858044;29;20274;-83
2022/04/26 14:36:00;;;;;;;4.50;2.00;;;;;;;19.93;56.72;96796.56;4860452;29;20275;-83
2022/04/26 14:38:44;;;;;;;3.30;2.20;;;;;;;20.34;56.60;96788.53;4870173;29;20207;-86
2022/04/26 14:41:12;;;;;;;4.27;2.30;;;;;;;20.57;57.37;96784.69;4875326;29;20575;-83
2022/04/26 14:43:42;;;;;;;3.73;2.07;;;;;;;20.46;56.92;96747.19;4872013;29;20229;-84
2022/04/26 14:46:10;;;;;;;5.10;3.23;;;;;;;20.76;56.83;96784.72;4873229;29;20225;-84
2022/04/26 14:48:38;;;;;;;5.30;2.40;;;;;;;20.75;55.77;96761.19;4874329;29;20192;-87
2022/04/26 14:51:05;;;;;;;11.63;4.63;;;;;;;20.79;55.29;96766.00;4875245;29;20283;-88
2022/04/26 14:53:32;;;;;;;3.93;2.57;;;;;;;21.01;55.01;96775.41;4878208;29;20591;-87
2022/04/26 14:56:06;;;;;;;3.63;2.50;;;;;;;21.12;55.28;96780.56;4861143;29;20636;-89
2022/04/26 14:58:53;;;;;;;5.97;3.10;;;;;;;21.13;53.89;96770.84;4882071;29;20192;-91
2022/04/26 15:01:30;;;;;;;8.53;3.50;;;;;;;21.08;54.08;96773.09;4882099;29;20230;-84
2022/04/26 15:03:58;;;;;;;4.50;2.67;;;;;;;21.10;52.91;96769.34;4891635;29;20220;-82
2022/04/26 15:06:25;;;;;;;6.07;3.33;;;;;;;20.98;52.36;96760.72;4897242;29;20204;-86
2022/04/26 15:11:38;;;;;;;7.37;2.57;;;;;;;20.75;53.22;96745.38;4882597;29;20203;-83
2022/04/26 15:16:54;;;;;;;4.40;2.57;;;;;;;20.55;53.16;96731.38;4881872;29;20227;-82
2022/04/26 15:19:22;;;;;;;8.23;2.30;;;;;;;20.59;53.57;96745.91;4870879;29;20589;-85
2022/04/26 15:21:50;;;;;;;6.93;2.30;;;;;;;20.69;53.54;96773.06;4890347;29;20221;-83
2022/04/26 15:24:21;;;;;;;7.13;2.40;;;;;;;20.44;53.38;96741.22;4887247;29;20211;-84
2022/04/26 15:26:51;;;;;;;6.43;2.60;;;;;;;20.52;53.72;96759.78;4888184;29;20183;-82
2022/04/26 15:29:19;;;;;;;5.97;2.20;;;;;;;20.59;54.24;96777.50;4885017;29;20204;-84
2022/04/26 15:31:49;;;;;;;6.30;2.50;;;;;;;20.48;54.48;96780.28;4892161;29;20224;-82
2022/04/26 15:34:16;;;;;;;9.57;2.60;;;;;;;20.56;55.53;96787.47;4895711;29;20192;-83
2022/04/26 15:36:43;;;;;;;7.20;2.60;;;;;;;20.50;56.25;96773.09;4897553;29;20255;-83
2022/04/26 15:39:10;;;;;;;12.43;1.83;;;;;;;20.52;55.61;96781.66;4891732;29;20196;-84
2022/04/26 15:41:38;;;;;;;6.10;1.90;;;;;;;20.30;55.94;96765.31;4886015;29;20192;-88
2022/04/26 15:44:05;;;;;;;14.10;2.70;;;;;;;20.46;55.87;96776.13;4880946;29;20290;-88
2022/04/26 15:46:41;;;;;;;2.10;1.83;;;;;;;20.52;55.06;96786.94;4881602;29;20561;-83
2022/04/26 15:49:12;;;;;;;5.17;2.30;;;;;;;20.35;55.77;96787.59;4890062;29;20188;-89
2022/04/26 15:51:42;;;;;;;7.07;2.80;;;;;;;20.11;55.75;96773.94;4896849;29;20219;-88
2022/04/26 15:54:14;;;;;;;6.53;2.30;;;;;;;20.15;57.92;96791.94;4892333;29;20227;-84
2022/04/26 15:56:47;;;;;;;10.97;2.40;;;;;;;20.05;58.93;96795.53;4884374;29;20198;-85
2022/04/26 15:59:16;;;;;;;3.87;1.73;;;;;;;20.01;59.09;96807.28;4881662;29;20214;-84
2022/04/26 16:01:43;;;;;;;10.10;2.90;;;;;;;20.04;60.25;96833.28;4878439;29;20206;-84
2022/04/26 16:04:11;;;;;;;7.67;2.67;;;;;;;19.84;61.18;96836.81;4863355;29;20239;-82
2022/04/26 16:06:41;;;;;;;7.80;2.77;;;;;;;19.66;61.92;96854.16;4884139;29;20228;-83
2022/04/26 16:20:29;;;;;;;4.40;2.73;;;;;;;19.11;64.89;96829.00;4884948;29;20203;-82
2022/04/26 16:23:02;;;;;;;4.00;2.77;;;;;;;18.86;63.41;96822.31;4883190;29;20258;-82
2022/04/26 16:25:30;;;;;;;4.37;2.80;;;;;;;18.92;63.06;96850.69;4884909;29;20239;-82